Time;durP1;ratioP1;P1;durP2;ratioP2;P2;SDS_P1;SDS_P2;PMS_P1;PMS_P2;Temp;Humidity;BMP_temperature;BMP_pressure;BME280_temperature;BME280_humidity;BME280_pressure;Samples;Min_cycle;Max_cycle;Signal;HPM_P1;HPM_P2
2021/06/27 00:00:14;;;;;;;31.07;28.47;;;;;;;;;;5046692;28;20169;-58
2021/06/27 00:02:39;;;;;;;30.63;27.90;;;;;;;;;;5041955;28;20179;-58
2021/06/27 00:05:05;;;;;;;30.73;28.10;;;;;;;;;;5044406;28;20640;-57
2021/06/27 00:07:30;;;;;;;31.10;28.30;;;;;;;;;;5046578;28;20649;-56
2021/06/27 00:09:56;;;;;;;29.25;26.80;;;;;;;;;;5034032;28;20626;-60
2021/06/27 00:12:21;;;;;;;30.73;28.23;;;;;;;;;;5034728;28;20673;-57
2021/06/27 00:14:46;;;;;;;29.57;26.93;;;;;;;;;;5032131;28;20260;-59
2021/06/27 00:17:11;;;;;;;30.80;28.20;;;;;;;;;;5039649;28;20178;-58
2021/06/27 00:19:36;;;;;;;30.10;27.50;;;;;;;;;;5044279;28;20717;-58
2021/06/27 00:22:02;;;;;;;28.45;25.98;;;;;;;;;;5030738;28;20195;-58
2021/06/27 00:24:27;;;;;;;29.30;26.60;;;;;;;;;;5037572;28;20179;-58
2021/06/27 00:26:52;;;;;;;30.10;27.20;;;;;;;;;;5044204;28;20189;-57
2021/06/27 00:29:17;;;;;;;29.90;27.50;;;;;;;;;;5039834;28;20211;-58
2021/06/27 00:31:43;;;;;;;29.00;26.60;;;;;;;;;;5029390;28;20231;-58
2021/06/27 00:34:08;;;;;;;29.55;26.98;;;;;;;;;;5034798;28;20265;-57
2021/06/27 00:36:33;;;;;;;30.83;28.08;;;;;;;;;;5034240;28;20180;-58
2021/06/27 00:38:58;;;;;;;30.92;28.17;;;;;;;;;;5037799;28;20161;-58
2021/06/27 00:41:23;;;;;;;29.70;27.33;;;;;;;;;;5034706;28;20219;-58
2021/06/27 00:43:49;;;;;;;31.33;28.60;;;;;;;;;;5033782;28;20711;-57
2021/06/27 00:46:14;;;;;;;29.50;26.80;;;;;;;;;;5038244;28;20188;-58
2021/06/27 00:48:39;;;;;;;31.73;28.90;;;;;;;;;;5039519;28;21161;-57
2021/06/27 00:51:05;;;;;;;29.77;27.30;;;;;;;;;;5028627;28;20215;-57
2021/06/27 00:53:31;;;;;;;31.60;28.80;;;;;;;;;;5036363;28;20252;-57
2021/06/27 00:55:56;;;;;;;32.27;29.57;;;;;;;;;;5029170;28;20222;-57
2021/06/27 00:58:32;;;;;;;31.33;28.70;;;;;;;;;;5038811;28;20171;-57
2021/06/27 01:00:58;;;;;;;30.70;28.10;;;;;;;;;;5036249;28;20785;-57
2021/06/27 01:03:23;;;;;;;30.90;28.07;;;;;;;;;;5043555;28;20618;-57
2021/06/27 01:05:49;;;;;;;31.67;29.10;;;;;;;;;;5044351;28;20191;-58
2021/06/27 01:08:14;;;;;;;31.73;28.90;;;;;;;;;;5031916;28;20960;-58
2021/06/27 01:10:39;;;;;;;30.90;28.33;;;;;;;;;;5044090;28;20280;-58
2021/06/27 01:13:05;;;;;;;29.10;26.70;;;;;;;;;;5027050;28;20243;-58
2021/06/27 01:15:30;;;;;;;30.07;27.53;;;;;;;;;;5044202;28;20186;-58
2021/06/27 01:17:56;;;;;;;27.97;25.70;;;;;;;;;;5031310;28;20174;-58
2021/06/27 01:20:25;;;;;;;28.73;26.03;;;;;;;;;;5046336;28;20171;-58
2021/06/27 01:22:50;;;;;;;27.50;25.20;;;;;;;;;;5029160;28;20278;-58
2021/06/27 01:25:18;;;;;;;29.00;26.50;;;;;;;;;;5034842;28;20819;-57
2021/06/27 01:27:43;;;;;;;27.80;25.40;;;;;;;;;;5035501;28;20181;-58
2021/06/27 01:30:09;;;;;;;27.27;24.93;;;;;;;;;;5047401;28;20727;-58
2021/06/27 01:32:35;;;;;;;27.97;25.67;;;;;;;;;;5042883;28;20293;-57
2021/06/27 01:35:02;;;;;;;28.30;26.00;;;;;;;;;;5046013;28;20699;-58
2021/06/27 01:37:27;;;;;;;27.73;25.13;;;;;;;;;;5041613;28;20305;-58
2021/06/27 01:39:52;;;;;;;27.20;24.90;;;;;;;;;;5047203;28;20712;-57
2021/06/27 01:42:17;;;;;;;26.60;24.50;;;;;;;;;;5030729;28;20186;-58
2021/06/27 01:44:42;;;;;;;27.90;25.40;;;;;;;;;;5036942;28;20793;-58
2021/06/27 01:47:07;;;;;;;26.57;24.37;;;;;;;;;;5045459;28;20601;-58
2021/06/27 01:49:33;;;;;;;27.10;24.97;;;;;;;;;;5029946;28;20267;-57
2021/06/27 01:51:58;;;;;;;26.42;24.33;;;;;;;;;;5032579;28;20205;-58
2021/06/27 01:54:23;;;;;;;27.00;24.73;;;;;;;;;;5024226;28;20203;-58
2021/06/27 01:56:48;;;;;;;27.70;25.40;;;;;;;;;;5037410;28;20175;-57
2021/06/27 01:59:13;;;;;;;26.73;24.30;;;;;;;;;;5037845;28;20180;-58
2021/06/27 02:01:39;;;;;;;24.20;22.27;;;;;;;;;;5035778;28;20195;-58
2021/06/27 02:04:05;;;;;;;25.13;22.93;;;;;;;;;;5041822;28;20711;-57
2021/06/27 02:06:33;;;;;;;27.03;24.63;;;;;;;;;;5037329;28;20230;-58
2021/06/27 02:09:01;;;;;;;25.83;23.60;;;;;;;;;;5027637;28;20245;-57
2021/06/27 02:11:27;;;;;;;27.73;25.53;;;;;;;;;;5031097;28;20726;-57
2021/06/27 02:13:53;;;;;;;28.03;25.73;;;;;;;;;;5028095;28;20724;-58
2021/06/27 02:16:18;;;;;;;27.20;25.00;;;;;;;;;;5041982;28;20565;-58
2021/06/27 02:18:44;;;;;;;26.40;24.30;;;;;;;;;;5046477;28;20179;-58
2021/06/27 02:21:11;;;;;;;26.73;24.63;;;;;;;;;;5029652;28;20178;-58
2021/06/27 02:23:36;;;;;;;28.33;25.80;;;;;;;;;;5043447;28;21151;-58
2021/06/27 02:26:02;;;;;;;28.20;25.70;;;;;;;;;;5037053;28;20608;-58
2021/06/27 02:28:27;;;;;;;28.20;25.80;;;;;;;;;;5041626;28;20308;-58
2021/06/27 02:30:52;;;;;;;28.10;25.50;;;;;;;;;;5033504;28;20275;-57
2021/06/27 02:33:18;;;;;;;28.00;25.70;;;;;;;;;;5044619;28;20213;-58
2021/06/27 02:35:43;;;;;;;28.60;26.30;;;;;;;;;;5045746;28;20182;-57
2021/06/27 02:38:08;;;;;;;28.40;26.10;;;;;;;;;;5034414;28;20181;-58
2021/06/27 02:40:34;;;;;;;29.93;27.53;;;;;;;;;;5047150;28;20752;-57
2021/06/27 02:42:59;;;;;;;29.33;26.73;;;;;;;;;;5036121;28;20491;-58
2021/06/27 02:45:24;;;;;;;27.45;25.15;;;;;;;;;;5047284;28;20174;-57
2021/06/27 02:47:49;;;;;;;28.50;26.20;;;;;;;;;;5042686;28;20278;-57
2021/06/27 02:50:15;;;;;;;28.27;25.90;;;;;;;;;;5044776;28;20522;-57
2021/06/27 02:52:41;;;;;;;27.17;24.97;;;;;;;;;;5036487;28;20226;-58
2021/06/27 02:55:07;;;;;;;28.57;26.27;;;;;;;;;;5027177;28;20224;-57
2021/06/27 02:57:32;;;;;;;28.17;25.87;;;;;;;;;;5046549;28;21396;-57
2021/06/27 02:59:58;;;;;;;28.60;26.10;;;;;;;;;;5044537;28;20644;-57
2021/06/27 03:02:23;;;;;;;26.53;24.30;;;;;;;;;;5040340;28;20186;-58
2021/06/27 03:04:48;;;;;;;28.60;26.13;;;;;;;;;;5045064;28;20593;-58
2021/06/27 03:07:14;;;;;;;28.50;25.97;;;;;;;;;;5029917;28;20240;-59
2021/06/27 03:09:39;;;;;;;28.67;26.20;;;;;;;;;;5039166;28;20204;-60
2021/06/27 03:12:04;;;;;;;27.63;24.98;;;;;;;;;;5037970;28;20198;-59
2021/06/27 03:14:29;;;;;;;29.53;26.87;;;;;;;;;;5034312;28;20172;-60
2021/06/27 03:16:54;;;;;;;27.65;25.30;;;;;;;;;;5032312;28;20198;-60
2021/06/27 03:19:20;;;;;;;29.70;27.10;;;;;;;;;;5037810;28;20179;-60
2021/06/27 03:21:45;;;;;;;28.65;26.23;;;;;;;;;;5029971;28;20166;-59
2021/06/27 03:24:10;;;;;;;28.83;26.33;;;;;;;;;;5032182;28;20696;-59
2021/06/27 03:26:36;;;;;;;28.27;25.87;;;;;;;;;;5040706;28;20208;-59
2021/06/27 03:29:01;;;;;;;30.80;28.10;;;;;;;;;;5045348;28;20190;-60
2021/06/27 03:31:26;;;;;;;30.63;27.53;;;;;;;;;;5039160;28;20226;-60
2021/06/27 03:33:51;;;;;;;28.63;26.23;;;;;;;;;;5030771;28;20209;-60
2021/06/27 03:36:16;;;;;;;29.48;26.73;;;;;;;;;;5034171;28;20266;-59
2021/06/27 03:38:55;;;;;;;27.93;25.53;;;;;;;;;;5042852;28;20182;-60
2021/06/27 03:41:22;;;;;;;28.90;26.30;;;;;;;;;;5043590;28;20185;-60
2021/06/27 03:43:47;;;;;;;28.97;26.47;;;;;;;;;;5034850;28;20602;-60
2021/06/27 03:46:13;;;;;;;34.00;30.90;;;;;;;;;;5035787;28;20608;-59
2021/06/27 03:48:39;;;;;;;30.20;27.47;;;;;;;;;;5038595;28;20269;-60
2021/06/27 03:51:04;;;;;;;30.70;28.00;;;;;;;;;;5032225;28;20692;-60
2021/06/27 03:53:29;;;;;;;28.27;25.83;;;;;;;;;;5038374;28;20317;-60
2021/06/27 03:55:57;;;;;;;28.20;25.80;;;;;;;;;;5049408;28;20169;-59
2021/06/27 03:58:23;;;;;;;29.27;26.87;;;;;;;;;;5043610;28;20230;-59
2021/06/27 04:00:48;;;;;;;27.20;24.90;;;;;;;;;;5040022;28;20595;-59
2021/06/27 04:03:14;;;;;;;27.98;25.48;;;;;;;;;;5039525;28;20176;-59
2021/06/27 04:05:39;;;;;;;25.90;23.70;;;;;;;;;;5040024;28;20601;-59
2021/06/27 04:08:04;;;;;;;25.92;23.73;;;;;;;;;;5037715;28;20183;-60
2021/06/27 04:10:29;;;;;;;25.30;23.20;;;;;;;;;;5045679;28;20204;-59
2021/06/27 04:12:54;;;;;;;23.67;21.67;;;;;;;;;;5036648;28;20187;-59
2021/06/27 04:15:19;;;;;;;24.52;22.52;;;;;;;;;;5040630;28;20189;-60
2021/06/27 04:17:45;;;;;;;22.63;20.83;;;;;;;;;;5032321;28;20252;-60
2021/06/27 04:20:10;;;;;;;23.10;21.20;;;;;;;;;;5040270;28;20179;-59
2021/06/27 04:22:36;;;;;;;24.20;22.17;;;;;;;;;;5038246;28;20644;-59
2021/06/27 04:25:02;;;;;;;22.23;20.53;;;;;;;;;;5038964;28;20187;-60
2021/06/27 04:27:28;;;;;;;22.73;20.63;;;;;;;;;;5044675;28;20660;-59
2021/06/27 04:29:53;;;;;;;21.70;20.00;;;;;;;;;;5034598;28;20628;-57
2021/06/27 04:32:18;;;;;;;21.80;19.90;;;;;;;;;;5042015;28;20266;-59
2021/06/27 04:34:43;;;;;;;20.70;18.90;;;;;;;;;;5041862;28;20166;-58
2021/06/27 04:37:08;;;;;;;21.53;19.63;;;;;;;;;;5043792;28;20176;-58
2021/06/27 04:39:34;;;;;;;20.58;18.73;;;;;;;;;;5038566;28;20182;-58
2021/06/27 04:41:59;;;;;;;21.40;19.70;;;;;;;;;;5043809;28;20210;-58
2021/06/27 04:44:24;;;;;;;18.67;17.20;;;;;;;;;;5046314;28;20180;-58
2021/06/27 04:46:49;;;;;;;21.15;19.55;;;;;;;;;;5036814;28;20172;-58
2021/06/27 04:49:14;;;;;;;19.77;18.27;;;;;;;;;;5033334;28;20179;-60
2021/06/27 04:51:40;;;;;;;21.03;19.30;;;;;;;;;;5040236;28;20275;-59
2021/06/27 04:54:05;;;;;;;19.10;17.70;;;;;;;;;;5030545;28;20173;-59
2021/06/27 04:56:30;;;;;;;18.38;16.90;;;;;;;;;;5032027;28;20645;-59
2021/06/27 04:58:55;;;;;;;19.67;18.08;;;;;;;;;;5047482;28;20161;-59
2021/06/27 05:01:21;;;;;;;18.77;17.35;;;;;;;;;;5041590;28;20175;-59
2021/06/27 05:03:46;;;;;;;17.77;16.37;;;;;;;;;;5034745;28;20696;-58
2021/06/27 05:06:11;;;;;;;18.27;16.67;;;;;;;;;;5041636;28;20175;-58
2021/06/27 05:08:36;;;;;;;18.63;17.13;;;;;;;;;;5032042;28;20271;-59
2021/06/27 05:11:01;;;;;;;17.10;15.88;;;;;;;;;;5033025;28;20208;-59
2021/06/27 05:13:26;;;;;;;18.30;16.90;;;;;;;;;;5032955;28;20202;-59
2021/06/27 05:15:52;;;;;;;17.67;16.30;;;;;;;;;;5033390;28;20178;-58
2021/06/27 05:18:17;;;;;;;17.67;16.37;;;;;;;;;;5044112;28;20547;-59
2021/06/27 05:20:43;;;;;;;18.43;16.80;;;;;;;;;;5038665;28;20229;-60
2021/06/27 05:23:08;;;;;;;18.03;16.63;;;;;;;;;;5027395;28;20187;-60
2021/06/27 05:25:33;;;;;;;17.40;16.10;;;;;;;;;;5039544;28;20184;-59
2021/06/27 05:27:59;;;;;;;16.60;15.30;;;;;;;;;;5033153;28;20245;-60
2021/06/27 05:30:25;;;;;;;17.90;16.40;;;;;;;;;;5041631;28;20230;-59
2021/06/27 05:32:50;;;;;;;17.40;16.10;;;;;;;;;;5035784;28;20645;-60
2021/06/27 05:35:15;;;;;;;17.00;15.80;;;;;;;;;;5043927;28;20531;-59
2021/06/27 05:37:40;;;;;;;18.10;16.80;;;;;;;;;;5038647;28;20187;-59
2021/06/27 05:40:06;;;;;;;18.52;17.13;;;;;;;;;;5038481;28;20168;-60
2021/06/27 05:42:31;;;;;;;16.73;15.53;;;;;;;;;;5034844;28;20183;-59
2021/06/27 05:44:56;;;;;;;16.13;14.83;;;;;;;;;;5038059;28;20191;-60
2021/06/27 05:47:21;;;;;;;16.87;15.67;;;;;;;;;;5039832;28;20211;-61
2021/06/27 05:49:47;;;;;;;15.70;14.60;;;;;;;;;;5042649;28;20268;-59
2021/06/27 05:52:12;;;;;;;16.20;15.10;;;;;;;;;;5040939;28;20223;-59
2021/06/27 05:54:37;;;;;;;15.27;14.18;;;;;;;;;;5031786;28;20184;-60
2021/06/27 05:57:02;;;;;;;15.85;14.55;;;;;;;;;;5030273;28;20562;-60
2021/06/27 05:59:27;;;;;;;16.40;15.20;;;;;;;;;;5037549;28;20206;-58
2021/06/27 06:01:52;;;;;;;15.60;14.40;;;;;;;;;;5041618;28;20173;-58
2021/06/27 06:04:18;;;;;;;16.80;15.50;;;;;;;;;;5038708;28;20652;-58
2021/06/27 06:06:43;;;;;;;16.37;15.07;;;;;;;;;;5034115;28;20188;-58
2021/06/27 06:09:08;;;;;;;15.70;14.60;;;;;;;;;;5030677;28;20210;-58
2021/06/27 06:11:33;;;;;;;15.43;14.35;;;;;;;;;;5040763;28;20174;-58
2021/06/27 06:13:58;;;;;;;16.37;15.17;;;;;;;;;;5037828;28;20655;-59
2021/06/27 06:16:23;;;;;;;15.43;14.33;;;;;;;;;;5032297;28;20237;-59
2021/06/27 06:18:49;;;;;;;15.77;14.37;;;;;;;;;;5045788;28;20656;-59
2021/06/27 06:21:14;;;;;;;15.50;14.40;;;;;;;;;;5044299;28;20171;-58
2021/06/27 06:23:40;;;;;;;14.43;13.43;;;;;;;;;;5033653;28;20647;-59
2021/06/27 06:26:05;;;;;;;15.50;14.40;;;;;;;;;;5037750;28;20180;-58
2021/06/27 06:28:31;;;;;;;14.27;13.23;;;;;;;;;;5035814;28;20628;-58
2021/06/27 06:30:56;;;;;;;12.13;11.33;;;;;;;;;;5035811;28;20753;-59
2021/06/27 06:33:21;;;;;;;11.80;11.00;;;;;;;;;;5030547;28;20247;-60
2021/06/27 06:35:46;;;;;;;12.00;11.20;;;;;;;;;;5037829;28;20194;-59
2021/06/27 06:38:12;;;;;;;11.77;11.07;;;;;;;;;;5033784;28;20247;-59
2021/06/27 06:40:37;;;;;;;11.33;10.63;;;;;;;;;;5044600;28;20668;-59
2021/06/27 06:43:03;;;;;;;11.10;10.37;;;;;;;;;;5042770;28;21866;-60
2021/06/27 06:45:29;;;;;;;11.80;11.00;;;;;;;;;;5037930;28;20658;-58
2021/06/27 06:47:54;;;;;;;9.97;9.27;;;;;;;;;;5029907;28;20578;-58
2021/06/27 06:50:20;;;;;;;11.17;10.47;;;;;;;;;;5040163;28;20271;-59
2021/06/27 06:52:45;;;;;;;9.10;8.60;;;;;;;;;;5029521;28;20192;-58
2021/06/27 06:55:10;;;;;;;9.32;8.82;;;;;;;;;;5024612;28;20552;-59
2021/06/27 06:57:35;;;;;;;8.53;8.03;;;;;;;;;;5030646;28;20726;-60
2021/06/27 07:00:00;;;;;;;10.20;9.60;;;;;;;;;;5031451;28;20188;-59
2021/06/27 07:02:25;;;;;;;9.00;8.50;;;;;;;;;;5035469;28;20306;-59
2021/06/27 07:04:51;;;;;;;9.03;8.53;;;;;;;;;;5038787;28;20705;-61
2021/06/27 07:07:16;;;;;;;8.90;8.40;;;;;;;;;;5031868;28;20179;-59
2021/06/27 07:09:41;;;;;;;8.90;8.40;;;;;;;;;;5027851;28;20874;-59
2021/06/27 07:12:07;;;;;;;8.80;8.30;;;;;;;;;;5030632;28;20188;-64
2021/06/27 07:14:32;;;;;;;10.20;9.60;;;;;;;;;;5030251;28;20260;-59
2021/06/27 07:16:57;;;;;;;9.43;8.93;;;;;;;;;;5027510;28;20176;-59
2021/06/27 07:19:22;;;;;;;9.38;8.88;;;;;;;;;;5029636;28;20673;-60
2021/06/27 07:21:47;;;;;;;9.75;9.25;;;;;;;;;;5037000;28;20248;-59
2021/06/27 07:24:13;;;;;;;10.37;9.60;;;;;;;;;;5041968;28;20172;-60
2021/06/27 07:26:38;;;;;;;11.07;10.37;;;;;;;;;;5038093;28;20181;-58
2021/06/27 07:29:03;;;;;;;11.30;10.70;;;;;;;;;;5033142;28;20670;-59
2021/06/27 07:31:28;;;;;;;10.70;10.10;;;;;;;;;;5034818;28;20656;-57
2021/06/27 07:33:53;;;;;;;12.60;11.80;;;;;;;;;;5041219;28;20270;-59
2021/06/27 07:36:19;;;;;;;14.67;13.77;;;;;;;;;;5042574;28;20538;-59
2021/06/27 07:38:44;;;;;;;14.33;13.33;;;;;;;;;;5029004;28;20180;-59
2021/06/27 07:41:11;;;;;;;12.97;12.00;;;;;;;;;;5029215;28;20181;-59
2021/06/27 07:43:37;;;;;;;13.77;12.87;;;;;;;;;;5029783;28;20177;-58
2021/06/27 07:46:02;;;;;;;16.70;15.60;;;;;;;;;;5028592;28;20634;-58
2021/06/27 07:48:27;;;;;;;15.90;14.80;;;;;;;;;;5035551;28;20301;-59
2021/06/27 07:50:52;;;;;;;15.02;14.02;;;;;;;;;;5029023;28;20184;-59
2021/06/27 07:53:17;;;;;;;14.33;13.27;;;;;;;;;;5039710;28;20303;-58
2021/06/27 07:55:42;;;;;;;14.27;13.30;;;;;;;;;;5040752;28;20166;-59
2021/06/27 07:58:08;;;;;;;14.90;13.90;;;;;;;;;;5027140;28;20532;-58
2021/06/27 08:00:33;;;;;;;14.82;13.77;;;;;;;;;;5039023;28;20176;-59
2021/06/27 08:02:58;;;;;;;14.10;13.00;;;;;;;;;;5044816;28;20251;-59
2021/06/27 08:05:24;;;;;;;15.70;14.57;;;;;;;;;;5046488;28;20271;-59
2021/06/27 08:07:49;;;;;;;16.27;15.07;;;;;;;;;;5048024;28;20643;-58
2021/06/27 08:10:14;;;;;;;14.93;13.93;;;;;;;;;;5047875;28;20193;-58
2021/06/27 08:12:41;;;;;;;15.50;14.40;;;;;;;;;;5048026;28;20227;-59
2021/06/27 08:15:06;;;;;;;17.37;15.73;;;;;;;;;;5049606;28;20180;-58
2021/06/27 08:17:32;;;;;;;15.00;13.83;;;;;;;;;;5050366;28;20578;-59
2021/06/27 08:19:57;;;;;;;14.30;13.30;;;;;;;;;;5049903;28;20773;-58
2021/06/27 08:22:22;;;;;;;14.38;13.38;;;;;;;;;;5048042;28;20192;-58
2021/06/27 08:24:47;;;;;;;14.43;13.43;;;;;;;;;;5048400;28;20270;-58
2021/06/27 08:27:13;;;;;;;15.70;14.27;;;;;;;;;;5046017;28;20188;-59
2021/06/27 08:29:39;;;;;;;13.67;12.77;;;;;;;;;;5037227;28;20191;-57
2021/06/27 08:32:04;;;;;;;14.20;13.20;;;;;;;;;;5037251;28;20180;-58
2021/06/27 08:34:30;;;;;;;13.00;12.10;;;;;;;;;;5038760;28;20610;-57
2021/06/27 08:36:55;;;;;;;13.90;12.90;;;;;;;;;;5029790;28;20183;-58
2021/06/27 08:39:20;;;;;;;13.10;12.20;;;;;;;;;;5029623;28;20279;-57
2021/06/27 08:41:46;;;;;;;12.53;11.63;;;;;;;;;;5029177;28;20317;-57
2021/06/27 08:44:14;;;;;;;14.30;13.10;;;;;;;;;;5030639;28;20171;-57
2021/06/27 08:46:43;;;;;;;13.10;12.13;;;;;;;;;;5029082;28;20184;-57
2021/06/27 08:49:09;;;;;;;12.77;11.80;;;;;;;;;;5032692;28;20618;-59
2021/06/27 08:51:37;;;;;;;11.90;11.00;;;;;;;;;;5030811;28;20636;-58
2021/06/27 08:54:02;;;;;;;13.07;12.00;;;;;;;;;;5038953;28;20696;-58
2021/06/27 08:56:27;;;;;;;11.03;10.33;;;;;;;;;;5037030;28;20599;-58
2021/06/27 08:58:52;;;;;;;11.43;10.45;;;;;;;;;;5042293;28;20200;-58
2021/06/27 09:01:18;;;;;;;11.50;10.80;;;;;;;;;;5029070;28;20172;-58
2021/06/27 09:03:44;;;;;;;10.73;10.03;;;;;;;;;;5031030;28;20630;-58
2021/06/27 09:06:09;;;;;;;10.00;9.30;;;;;;;;;;5031243;28;20600;-58
2021/06/27 09:08:34;;;;;;;9.67;8.97;;;;;;;;;;5028381;28;20182;-58
2021/06/27 09:11:13;;;;;;;9.25;8.55;;;;;;;;;;5035741;28;20292;-59
2021/06/27 09:13:39;;;;;;;11.13;10.30;;;;;;;;;;5032407;28;21083;-58
2021/06/27 09:16:16;;;;;;;11.90;10.90;;;;;;;;;;5036025;28;20594;-57
2021/06/27 09:18:41;;;;;;;10.80;9.10;;;;;;;;;;5042627;28;20605;-57
2021/06/27 09:21:06;;;;;;;9.57;8.93;;;;;;;;;;5031682;28;20959;-57
2021/06/27 09:23:50;;;;;;;9.90;9.20;;;;;;;;;;5039367;28;20277;-57
2021/06/27 09:26:25;;;;;;;9.80;9.20;;;;;;;;;;5032452;28;20189;-57
2021/06/27 09:28:51;;;;;;;8.37;7.77;;;;;;;;;;5029381;28;20611;-57
2021/06/27 09:31:54;;;;;;;9.50;8.90;;;;;;;;;;5037463;28;21044;-57
2021/06/27 09:34:19;;;;;;;8.77;8.27;;;;;;;;;;5006395;28;20196;-56
2021/06/27 09:36:53;;;;;;;7.60;7.10;;;;;;;;;;5006311;28;20613;-55
2021/06/27 09:39:18;;;;;;;7.70;7.20;;;;;;;;;;5017460;28;20192;-56
2021/06/27 09:41:54;;;;;;;7.60;7.00;;;;;;;;;;5028697;28;20592;-56
2021/06/27 09:44:20;;;;;;;7.97;7.47;;;;;;;;;;5040533;28;20236;-56
2021/06/27 09:46:47;;;;;;;6.63;6.23;;;;;;;;;;5047680;28;20687;-56
2021/06/27 09:49:13;;;;;;;7.13;6.73;;;;;;;;;;5040521;28;20167;-56
2021/06/27 09:51:41;;;;;;;6.80;6.20;;;;;;;;;;5033255;28;20631;-56
2021/06/27 09:54:13;;;;;;;7.13;6.63;;;;;;;;;;5043929;28;20635;-56
2021/06/27 09:56:38;;;;;;;6.80;6.40;;;;;;;;;;5028691;28;20603;-57
2021/06/27 09:59:06;;;;;;;7.77;7.27;;;;;;;;;;5027919;28;20561;-57
2021/06/27 10:01:31;;;;;;;7.70;7.10;;;;;;;;;;5029132;28;20229;-57
2021/06/27 10:03:58;;;;;;;6.80;6.40;;;;;;;;;;5038832;28;20605;-57
2021/06/27 10:06:28;;;;;;;6.70;6.30;;;;;;;;;;5027753;28;20591;-56
2021/06/27 10:08:54;;;;;;;6.40;5.90;;;;;;;;;;5027615;28;20632;-56
2021/06/27 10:11:20;;;;;;;7.10;6.70;;;;;;;;;;5027704;28;20626;-57
2021/06/27 10:13:46;;;;;;;7.13;6.63;;;;;;;;;;5027791;28;20195;-56
2021/06/27 10:16:15;;;;;;;6.50;6.10;;;;;;;;;;5043828;28;20577;-57
2021/06/27 10:18:41;;;;;;;7.13;6.73;;;;;;;;;;5034148;28;20597;-57
2021/06/27 10:21:06;;;;;;;7.07;6.67;;;;;;;;;;5031151;28;20681;-57
2021/06/27 10:23:31;;;;;;;6.90;6.50;;;;;;;;;;5027513;28;20175;-61
2021/06/27 10:25:57;;;;;;;6.97;6.47;;;;;;;;;;5027727;28;20648;-57
2021/06/27 10:28:22;;;;;;;6.80;6.40;;;;;;;;;;5025537;28;20645;-57
2021/06/27 10:30:48;;;;;;;7.20;6.70;;;;;;;;;;5034507;28;20309;-58
2021/06/27 10:33:14;;;;;;;6.67;6.17;;;;;;;;;;5032896;28;20219;-56
2021/06/27 10:35:46;;;;;;;6.37;6.07;;;;;;;;;;5027404;28;20607;-58
2021/06/27 10:38:11;;;;;;;6.80;6.40;;;;;;;;;;5038386;28;20170;-58
2021/06/27 10:40:51;;;;;;;6.60;6.20;;;;;;;;;;5047403;28;20570;-58
2021/06/27 10:43:16;;;;;;;6.10;5.70;;;;;;;;;;5040573;28;20176;-58
2021/06/27 10:45:48;;;;;;;6.40;6.00;;;;;;;;;;5027101;28;20576;-58
2021/06/27 10:48:31;;;;;;;7.30;6.80;;;;;;;;;;5027587;28;20176;-58
2021/06/27 10:50:57;;;;;;;6.63;6.23;;;;;;;;;;5030839;28;20588;-58
2021/06/27 10:53:22;;;;;;;7.00;6.50;;;;;;;;;;5040187;28;20641;-58
2021/06/27 10:55:47;;;;;;;6.70;6.30;;;;;;;;;;5037715;28;20180;-58
2021/06/27 10:58:16;;;;;;;5.80;5.50;;;;;;;;;;5026990;28;20802;-58
2021/06/27 11:00:54;;;;;;;6.90;6.50;;;;;;;;;;5027839;28;20216;-58
2021/06/27 11:03:24;;;;;;;6.57;6.17;;;;;;;;;;5032489;28;20562;-58
2021/06/27 11:05:50;;;;;;;6.30;5.90;;;;;;;;;;5039779;28;20594;-58
2021/06/27 11:08:28;;;;;;;5.90;5.53;;;;;;;;;;5042100;28;20614;-58
2021/06/27 11:10:57;;;;;;;5.90;5.50;;;;;;;;;;5032226;28;20717;-57
2021/06/27 11:13:22;;;;;;;6.03;5.63;;;;;;;;;;5039196;28;21395;-57
2021/06/27 11:15:51;;;;;;;5.33;5.03;;;;;;;;;;5045612;28;20603;-58
2021/06/27 11:18:34;;;;;;;5.53;5.23;;;;;;;;;;5035773;28;20267;-57
2021/06/27 11:21:00;;;;;;;5.60;5.20;;;;;;;;;;5031031;28;20606;-57
2021/06/27 11:23:44;;;;;;;5.57;5.23;;;;;;;;;;5030694;28;20622;-58
2021/06/27 11:26:09;;;;;;;6.20;5.80;;;;;;;;;;5033529;28;20710;-58
2021/06/27 11:28:35;;;;;;;5.83;5.53;;;;;;;;;;5035577;28;20705;-57
2021/06/27 11:31:19;;;;;;;6.00;5.70;;;;;;;;;;5028128;28;20228;-57
2021/06/27 11:33:44;;;;;;;5.67;5.37;;;;;;;;;;5026290;28;20196;-58
2021/06/27 11:36:25;;;;;;;5.43;5.13;;;;;;;;;;5032598;28;20634;-57
2021/06/27 11:38:50;;;;;;;6.40;6.00;;;;;;;;;;5037610;28;20187;-57
2021/06/27 11:41:21;;;;;;;5.97;5.67;;;;;;;;;;5036427;28;20609;-57
2021/06/27 11:43:52;;;;;;;5.97;5.67;;;;;;;;;;5040079;28;20187;-55
2021/06/27 11:46:30;;;;;;;6.17;5.70;;;;;;;;;;5042664;28;20604;-56
2021/06/27 11:48:59;;;;;;;5.30;5.00;;;;;;;;;;5047052;28;20597;-56
2021/06/27 11:51:38;;;;;;;5.67;5.37;;;;;;;;;;5039662;28;20609;-56
2021/06/27 11:54:04;;;;;;;5.53;5.23;;;;;;;;;;5038372;28;20648;-57
2021/06/27 11:56:49;;;;;;;5.70;5.30;;;;;;;;;;5043337;28;20584;-56
2021/06/27 11:59:14;;;;;;;5.17;4.87;;;;;;;;;;5043725;28;20601;-56
2021/06/27 12:01:40;;;;;;;5.15;4.85;;;;;;;;;;5035865;28;20605;-56
2021/06/27 12:04:05;;;;;;;5.60;5.30;;;;;;;;;;5029990;28;20211;-58
2021/06/27 12:06:36;;;;;;;6.13;5.70;;;;;;;;;;5031037;28;20640;-57
2021/06/27 12:09:02;;;;;;;5.47;5.17;;;;;;;;;;5046093;28;20187;-57
2021/06/27 12:11:27;;;;;;;5.90;5.50;;;;;;;;;;5035693;28;20641;-58
2021/06/27 12:13:56;;;;;;;4.90;4.60;;;;;;;;;;5038858;28;20643;-58
2021/06/27 12:16:21;;;;;;;5.60;5.30;;;;;;;;;;5039333;28;20688;-57
2021/06/27 12:18:46;;;;;;;5.07;4.77;;;;;;;;;;5032715;28;20596;-57
2021/06/27 12:21:13;;;;;;;5.63;5.33;;;;;;;;;;5037502;28;20172;-58
2021/06/27 12:23:38;;;;;;;5.43;5.13;;;;;;;;;;5041603;28;21047;-57
2021/06/27 12:26:05;;;;;;;5.90;5.50;;;;;;;;;;5041881;28;20616;-57
2021/06/27 12:28:33;;;;;;;5.23;4.93;;;;;;;;;;5048429;28;20179;-57
2021/06/27 12:30:59;;;;;;;4.80;4.50;;;;;;;;;;5044577;28;20652;-58
2021/06/27 12:33:29;;;;;;;5.30;5.00;;;;;;;;;;5030477;28;20706;-58
2021/06/27 12:35:56;;;;;;;5.13;4.73;;;;;;;;;;5033540;28;20581;-58
2021/06/27 12:38:21;;;;;;;5.27;4.97;;;;;;;;;;5037309;28;20701;-57
2021/06/27 12:40:49;;;;;;;5.20;4.90;;;;;;;;;;5027820;28;20677;-57
2021/06/27 12:43:18;;;;;;;5.17;4.73;;;;;;;;;;5029447;28;20169;-57
2021/06/27 12:45:43;;;;;;;5.03;4.63;;;;;;;;;;5025350;28;20688;-57
2021/06/27 12:48:11;;;;;;;5.22;4.82;;;;;;;;;;5032767;28;21157;-57
2021/06/27 12:50:37;;;;;;;5.00;4.70;;;;;;;;;;5035283;28;21298;-58
2021/06/27 12:53:04;;;;;;;5.20;4.90;;;;;;;;;;5032194;28;20620;-58
2021/06/27 12:55:29;;;;;;;5.27;4.93;;;;;;;;;;5035981;28;20196;-59
2021/06/27 12:57:55;;;;;;;5.37;5.07;;;;;;;;;;5032296;28;22082;-59
2021/06/27 13:00:20;;;;;;;5.57;5.20;;;;;;;;;;5033727;28;20191;-59
2021/06/27 13:02:48;;;;;;;5.37;4.97;;;;;;;;;;5038563;28;20661;-58
2021/06/27 13:05:15;;;;;;;5.10;4.80;;;;;;;;;;5036221;28;20646;-59
2021/06/27 13:07:55;;;;;;;4.40;4.13;;;;;;;;;;5034421;28;20570;-59
2021/06/27 13:10:24;;;;;;;5.03;4.73;;;;;;;;;;5035588;28;21251;-59
2021/06/27 13:12:57;;;;;;;4.43;4.13;;;;;;;;;;5032645;28;20713;-59
2021/06/27 13:15:23;;;;;;;5.30;4.80;;;;;;;;;;5044915;28;20640;-59
2021/06/27 13:17:52;;;;;;;5.17;4.87;;;;;;;;;;5047891;28;21186;-59
2021/06/27 13:20:41;;;;;;;5.27;4.97;;;;;;;;;;5039615;28;20573;-59
2021/06/27 13:23:06;;;;;;;5.87;5.47;;;;;;;;;;5026614;28;21286;-59
2021/06/27 13:25:40;;;;;;;5.37;5.07;;;;;;;;;;5027712;28;20599;-59
2021/06/27 13:28:26;;;;;;;5.00;4.70;;;;;;;;;;5035817;28;20171;-59
2021/06/27 13:31:05;;;;;;;5.47;5.07;;;;;;;;;;5024895;28;20722;-59
2021/06/27 13:33:36;;;;;;;4.83;4.53;;;;;;;;;;5033104;28;20739;-59
2021/06/27 13:36:04;;;;;;;4.43;4.20;;;;;;;;;;5028890;28;20644;-59
2021/06/27 13:38:30;;;;;;;5.00;4.73;;;;;;;;;;5035301;28;20607;-59
2021/06/27 13:40:56;;;;;;;5.00;4.70;;;;;;;;;;5047031;28;20709;-59
2021/06/27 13:43:40;;;;;;;24.53;7.30;;;;;;;;;;5028703;28;20187;-55
2021/06/27 13:46:06;;;;;;;5.00;4.70;;;;;;;;;;5031651;28;20186;-54
2021/06/27 13:48:31;;;;;;;5.13;4.83;;;;;;;;;;5032823;28;20582;-53
2021/06/27 13:50:56;;;;;;;5.73;5.43;;;;;;;;;;5034821;28;20267;-56
2021/06/27 13:53:21;;;;;;;;;;;;;;;;;;5030394;28;20400;-62
2021/06/27 13:55:47;;;;;;;5.07;4.57;;;;;;;;;;5026535;28;21457;-78
2021/06/27 13:58:12;;;;;;;6.13;5.63;;;;;;;;;;5033850;28;20218;-70
2021/06/27 14:01:04;;;;;;;6.20;5.80;;;;;;;;;;5082186;27;20793;-65
2021/06/27 14:03:30;;;;;;;5.20;4.90;;;;;;;;;;5071817;28;20592;-64
2021/06/27 14:05:55;;;;;;;5.90;5.50;;;;;;;;;;5080817;28;20619;-63
2021/06/27 14:08:20;;;;;;;5.65;5.35;;;;;;;;;;5078237;28;20175;-65
2021/06/27 14:10:45;;;;;;;5.40;5.10;;;;;;;;;;5082779;28;20193;-64
2021/06/27 14:13:10;;;;;;;5.50;5.10;;;;;;;;;;5085403;28;20205;-63
2021/06/27 14:15:35;;;;;;;6.07;5.67;;;;;;;;;;5085837;28;20186;-64
2021/06/27 14:18:00;;;;;;;5.25;4.95;;;;;;;;;;5080177;28;20206;-66
2021/06/27 14:20:26;;;;;;;5.70;5.30;;;;;;;;;;5082816;28;20209;-66
2021/06/27 14:22:51;;;;;;;5.60;5.20;;;;;;;;;;5077884;28;20182;-67
2021/06/27 14:25:16;;;;;;;4.90;4.60;;;;;;;;;;5080517;28;20174;-66